Time;durP1;ratioP1;P1;durP2;ratioP2;P2;SDS_P1;SDS_P2;PMS_P1;PMS_P2;Temp;Humidity;BMP_temperature;BMP_pressure;BME280_temperature;BME280_humidity;BME280_pressure;Samples;Min_cycle;Max_cycle;Signal;HPM_P1;HPM_P2
2022/08/15 00:02:58;;;;;;;;;7.25;7.00;;;;;21.27;65.50;99905.56;146605;604;46020;-71
2022/08/15 00:05:56;;;;;;;;;7.75;7.75;;;;;22.12;66.01;100083.69;146600;575;47017;-71
2022/08/15 00:09:02;;;;;;;;;8.00;7.33;;;;;22.05;65.67;100084.56;146629;579;45020;-71
2022/08/15 00:12:01;;;;;;;;;7.50;6.50;;;;;22.08;64.97;100091.59;146627;627;45912;-70
2022/08/15 00:14:53;;;;;;;;;7.00;6.00;;;;;22.17;65.39;100094.22;146633;716;44021;-69
2022/08/15 00:17:50;;;;;;;;;10.00;9.00;;;;;22.22;65.03;100078.38;146631;647;45912;-70
2022/08/15 00:20:55;;;;;;;;;7.50;6.25;;;;;22.25;65.08;100089.78;146631;577;45010;-69
2022/08/15 00:23:51;;;;;;;;;5.50;5.50;;;;;22.25;64.95;100095.06;146630;563;45911;-70
2022/08/15 00:26:48;;;;;;;;;7.75;6.75;;;;;22.26;64.85;100086.25;146631;606;44917;-70
2022/08/15 00:29:41;;;;;;;;;6.00;5.50;;;;;22.28;65.17;100092.41;146629;613;45912;-71
2022/08/15 00:32:36;;;;;;;;;7.00;4.75;;;;;22.33;65.44;100087.94;146631;681;44048;-72
2022/08/15 00:35:41;;;;;;;;;7.00;7.00;;;;;22.36;64.31;100090.56;146625;602;47912;-70
2022/08/15 00:38:41;;;;;;;;;6.00;5.00;;;;;22.37;64.57;100091.47;146630;579;45014;-71
2022/08/15 00:41:43;;;;;;;;;5.33;5.33;;;;;22.35;65.20;100098.53;146633;612;44913;-70
2022/08/15 00:44:59;;;;;;;;;7.50;7.50;;;;;22.31;64.44;100096.81;146630;571;44917;-71
2022/08/15 00:51:14;;;;;;;;;6.00;6.00;;;;;22.30;64.75;100102.94;146632;663;44021;-71
2022/08/15 00:54:35;;;;;;;;;9.50;9.00;;;;;22.22;64.46;100115.34;146630;570;44912;-71
2022/08/15 00:57:45;;;;;;;;;5.25;4.75;;;;;22.17;64.96;100122.41;146634;572;44021;-71
2022/08/15 01:00:48;;;;;;;;;9.25;8.50;;;;;22.12;65.39;100120.66;146632;593;44016;-71
2022/08/15 01:03:57;;;;;;;;;8.00;7.00;;;;;22.01;65.02;100114.53;146632;596;45010;-70
2022/08/15 01:07:07;;;;;;;;;6.00;5.25;;;;;21.88;65.54;100118.13;146621;575;45911;-72
2022/08/15 01:10:06;;;;;;;;;6.25;6.25;;;;;21.75;65.91;100112.03;146606;594;45020;-71
2022/08/15 01:12:59;;;;;;;;;8.25;7.00;;;;;21.70;66.32;100115.56;146603;643;45912;-71
2022/08/15 01:15:52;;;;;;;;;8.25;7.25;;;;;21.67;66.78;100117.31;146608;662;45020;-71
2022/08/15 01:18:46;;;;;;;;;6.00;5.25;;;;;21.67;66.08;100116.44;146604;690;45017;-70
2022/08/15 01:21:52;;;;;;;;;7.00;6.00;;;;;21.70;65.94;100121.72;146607;581;45020;-71
2022/08/15 01:25:25;;;;;;;;;5.00;5.00;;;;;20.81;65.13;99952.31;146600;640;47012;-71
2022/08/15 01:28:42;;;;;;;;;7.00;6.50;;;;;21.88;66.36;100133.97;146609;564;45021;-72
2022/08/15 01:31:49;;;;;;;;;6.75;6.00;;;;;21.75;66.60;100125.22;146603;574;46012;-73
2022/08/15 01:34:49;;;;;;;;;9.25;6.50;;;;;21.68;66.39;100139.28;146606;621;46014;-70
2022/08/15 01:37:51;;;;;;;;;8.00;6.67;;;;;21.71;66.29;100138.41;146604;577;45912;-69
2022/08/15 01:41:15;;;;;;;;;5.75;5.75;;;;;21.79;65.69;100148.06;146606;617;45021;-70
2022/08/15 01:44:48;;;;;;;;;;;;;;;;;;;;;
2022/08/15 01:48:05;;;;;;;;;6.00;5.50;;;;;21.97;65.45;100136.56;146607;692;45020;-71
2022/08/15 01:51:33;;;;;;;;;4.50;4.50;;;;;21.50;65.43;100060.25;146603;679;45913;-71
2022/08/15 01:54:40;;;;;;;;;;;;;;;;;;;;;
2022/08/15 01:57:42;;;;;;;;;4.75;4.75;;;;;21.89;65.98;100143.62;146601;700;46012;-71
2022/08/15 02:00:44;;;;;;;;;5.75;3.50;;;;;21.95;66.22;100148.87;146607;671;45020;-74
2022/08/15 02:03:44;;;;;;;;;5.00;5.00;;;;;21.96;65.72;100147.97;146603;585;45913;-73
2022/08/15 02:06:39;;;;;;;;;5.33;5.33;;;;;21.92;65.90;100149.75;146608;564;45021;-73
2022/08/15 02:09:35;;;;;;;;;6.00;6.00;;;;;21.88;65.91;100142.75;146603;645;46012;-71
2022/08/15 02:12:40;;;;;;;;;6.75;5.75;;;;;21.89;65.41;100152.41;146606;612;45021;-72
2022/08/15 02:15:45;;;;;;;;;5.67;4.00;;;;;21.86;65.56;100148.91;146604;657;45913;-72
2022/08/15 02:18:42;;;;;;;;;7.00;7.00;;;;;21.91;65.66;100147.16;146607;577;46011;-72
2022/08/15 02:21:39;;;;;;;;;6.50;6.50;;;;;21.94;65.04;100141.84;146601;675;46012;-72
2022/08/15 02:24:42;;;;;;;;;7.75;6.00;;;;;21.95;65.53;100135.69;146610;621;45020;-73
2022/08/15 02:27:55;;;;;;;;;6.25;5.00;;;;;21.10;64.97;99974.22;146601;574;46014;-71
2022/08/15 02:31:10;;;;;;;;;4.00;3.50;;;;;21.18;64.84;99977.72;146609;693;45020;-71
2022/08/15 02:34:14;;;;;;;;;6.75;5.75;;;;;22.19;65.53;100144.41;146603;581;45912;-72
2022/08/15 02:37:19;;;;;;;;;7.00;6.50;;;;;22.24;64.42;100146.16;146604;575;45020;-72
2022/08/15 02:40:20;;;;;;;;;5.00;5.00;;;;;22.27;65.07;100150.50;146601;625;45912;-72
2022/08/15 02:43:24;;;;;;;;;6.50;6.00;;;;;22.24;64.90;100146.16;146609;583;45020;-72
2022/08/15 02:46:20;;;;;;;;;6.50;5.75;;;;;22.16;65.46;100149.66;146601;579;45913;-72
2022/08/15 02:49:15;;;;;;;;;5.75;5.75;;;;;22.07;65.04;100151.47;146609;608;46014;-72
2022/08/15 02:52:17;;;;;;;;;4.75;4.75;;;;;22.09;64.77;100162.91;146603;656;45911;-72
2022/08/15 02:55:24;;;;;;;;;6.50;6.50;;;;;22.12;64.50;100154.09;146611;603;45021;-71
2022/08/15 02:58:24;;;;;;;;;5.50;5.50;;;;;22.21;64.50;100155.81;146603;570;45911;-71
2022/08/15 03:01:33;;;;;;;;;5.75;4.00;;;;;22.25;63.71;100157.59;146606;591;45020;-70
2022/08/15 03:04:34;;;;;;;;;7.25;7.25;;;;;22.26;64.42;100165.47;146603;640;45912;-72
2022/08/15 03:07:30;;;;;;;;;7.50;6.00;;;;;22.28;64.17;100169.00;146605;609;46014;-70
2022/08/15 03:10:46;;;;;;;;;;;;;;;;;;;;;
2022/08/15 03:13:47;;;;;;;;;5.00;5.00;;;;;22.22;63.93;100170.81;146603;589;45022;-71
2022/08/15 03:17:21;;;;;;;;;7.75;5.50;;;;;22.20;63.90;100170.78;146602;571;45912;-72
2022/08/15 03:20:21;;;;;;;;;7.25;4.00;;;;;22.26;64.60;100173.41;146608;603;46010;-74
2022/08/15 03:23:21;;;;;;;;;8.00;7.00;;;;;22.28;63.79;100168.12;146602;563;45914;-75
2022/08/15 03:26:38;;;;;;;;;6.00;6.00;;;;;22.34;64.25;100181.31;146607;715;45021;-73
2022/08/15 03:29:35;;;;;;;;;5.50;5.00;;;;;22.44;63.92;100169.78;146602;575;45914;-74
2022/08/15 03:32:35;;;;;;;;;5.25;4.50;;;;;22.48;64.11;100174.16;146603;590;46011;-74
2022/08/15 03:35:32;;;;;;;;;7.00;6.00;;;;;22.51;63.97;100170.62;146603;563;45860;-73
2022/08/15 03:38:33;;;;;;;;;5.50;5.50;;;;;22.51;63.62;100181.19;146607;666;45020;-74
2022/08/15 03:41:41;;;;;;;;;8.25;7.00;;;;;22.47;64.12;100180.34;146601;564;46014;-73
2022/08/15 03:44:48;;;;;;;;;;;;;;;;;;;;;
2022/08/15 03:47:48;;;;;;;;;10.00;9.25;;;;;22.40;64.61;100178.63;146603;572;45911;-72
2022/08/15 03:50:51;;;;;;;;;8.50;7.00;;;;;22.35;64.43;100181.28;146607;702;45020;-73
2022/08/15 03:53:52;;;;;;;;;11.00;8.75;;;;;22.28;65.06;100174.28;146602;597;45912;-74
2022/08/15 03:56:51;;;;;;;;;12.00;8.25;;;;;22.18;65.47;100179.59;146607;743;45020;-76
2022/08/15 03:59:46;;;;;;;;;8.75;7.75;;;;;22.09;64.89;100177.88;146603;633;45912;-70
2022/08/15 04:02:48;;;;;;;;;6.75;5.50;;;;;22.01;64.94;100191.09;146606;579;46011;-70
2022/08/15 04:05:51;;;;;;;;;9.00;7.50;;;;;21.99;65.24;100184.91;146603;680;45912;-69
2022/08/15 04:08:50;;;;;;;;;6.00;5.75;;;;;22.04;65.39;100187.56;146634;596;45011;-74
2022/08/15 04:11:43;;;;;;;;;7.25;6.00;;;;;22.22;65.39;100199.84;146632;703;45010;-70
2022/08/15 04:14:49;;;;;;;;;8.00;7.75;;;;;22.31;64.47;100191.88;146632;565;45010;-69
2022/08/15 04:17:55;;;;;;;;;6.00;5.50;;;;;22.28;65.60;100192.78;146632;587;45913;-70
2022/08/15 04:20:47;;;;;;;;;7.00;6.00;;;;;22.16;64.56;100203.37;146635;577;44916;-70
2022/08/15 04:23:49;;;;;;;;;5.00;5.00;;;;;22.05;64.14;100198.09;146632;586;45013;-70
2022/08/15 04:26:57;;;;;;;;;;;;;;;;;;;;;
2022/08/15 04:29:57;;;;;;;;;6.75;6.00;;;;;22.07;64.57;100208.66;146634;579;45910;-72
2022/08/15 04:33:10;;;;;;;;;4.67;4.67;;;;;22.05;64.29;100207.78;146636;643;44021;-71
2022/08/15 04:36:13;;;;;;;;;8.25;5.75;;;;;22.05;64.60;100211.31;146630;581;45912;-70
2022/08/15 04:39:08;;;;;;;;;6.00;6.00;;;;;22.24;63.83;100204.25;146635;636;44917;-71
2022/08/15 04:42:30;;;;;;;;;5.67;5.67;;;;;21.40;63.59;100036.53;146633;588;45912;-71
2022/08/15 04:45:39;;;;;;;;;7.00;7.00;;;;;22.60;63.06;100211.06;146634;572;45010;-72
2022/08/15 04:48:35;;;;;;;;;7.00;5.00;;;;;22.87;62.81;100205.63;146636;598;45014;-72
2022/08/15 04:51:37;;;;;;;;;5.00;5.00;;;;;23.07;61.92;100202.84;146638;680;44020;-72
2022/08/15 04:54:41;;;;;;;;;7.50;7.50;;;;;22.27;62.08;100044.88;146629;679;45913;-72
2022/08/15 04:57:45;;;;;;;;;;;;;;;;;;;;;
2022/08/15 05:00:40;;;;;;;;;6.75;6.75;;;;;23.46;62.24;100207.78;146630;653;44017;-73
2022/08/15 05:03:37;;;;;;;;;6.75;5.50;;;;;23.70;60.93;100208.44;146635;664;45014;-73
2022/08/15 05:06:32;;;;;;;;;7.50;6.25;;;;;23.96;59.85;100208.19;146624;650;45912;-76
2022/08/15 05:09:27;;;;;;;;;5.00;5.00;;;;;24.11;59.42;100215.03;146608;569;45021;-73
2022/08/15 05:12:20;;;;;;;;;8.25;7.75;;;;;24.09;59.33;100214.19;146603;602;45911;-72
2022/08/15 05:15:16;;;;;;;;;9.00;8.00;;;;;24.09;59.88;100223.00;146605;564;45020;-71
2022/08/15 05:18:10;;;;;;;;;6.75;6.75;;;;;24.14;59.97;100222.94;146603;572;45913;-71
2022/08/15 05:21:08;;;;;;;;;8.50;7.00;;;;;24.22;59.83;100215.78;146607;625;45020;-71
2022/08/15 05:24:13;;;;;;;;;9.00;8.00;;;;;24.39;57.70;100235.00;146603;659;45913;-73
2022/08/15 05:27:11;;;;;;;;;7.25;7.00;;;;;24.57;58.19;100239.19;146606;609;45020;-72
2022/08/15 05:30:07;;;;;;;;;9.00;7.25;;;;;24.82;57.19;100245.03;146602;620;46012;-71
2022/08/15 05:33:11;;;;;;;;;5.50;5.50;;;;;25.04;56.72;100242.91;146607;588;45021;-72
2022/08/15 05:36:05;;;;;;;;;8.50;6.50;;;;;25.26;56.80;100256.75;146602;595;45912;-72
2022/08/15 05:39:03;;;;;;;;;6.33;5.67;;;;;25.52;56.11;100250.13;146605;607;46011;-72
2022/08/15 05:42:35;;;;;;;;;4.00;4.00;;;;;25.79;55.49;100267.31;146603;618;45912;-71
2022/08/15 05:46:02;;;;;;;;;5.33;5.33;;;;;26.09;56.14;100270.34;146603;628;46011;-72
2022/08/15 05:49:39;;;;;;;;;7.00;7.00;;;;;26.36;55.25;100259.16;146603;582;46014;-73
2022/08/15 05:53:12;;;;;;;;;5.33;4.67;;;;;26.61;54.47;100256.00;146607;692;45021;-72
2022/08/15 05:56:33;;;;;;;;;5.33;5.00;;;;;26.80;54.82;100254.69;146604;570;45912;-71
2022/08/15 05:59:35;;;;;;;;;5.50;4.25;;;;;26.97;53.61;100262.25;146607;688;45020;-70
2022/08/15 06:02:40;;;;;;;;;6.00;4.00;;;;;27.07;52.89;100263.81;146603;564;46912;-70
2022/08/15 06:05:57;;;;;;;;;5.33;5.00;;;;;26.18;52.35;100095.66;146609;578;45020;-68
2022/08/15 06:08:54;;;;;;;;;5.00;5.00;;;;;27.23;51.80;100256.38;146627;627;45910;-70
2022/08/15 06:11:53;;;;;;;;;6.00;6.00;;;;;27.30;51.30;100244.63;146630;576;44020;-70
2022/08/15 06:14:50;;;;;;;;;7.00;6.00;;;;;27.35;50.71;100249.84;146632;564;44913;-74
2022/08/15 06:17:55;;;;;;;;;6.00;6.00;;;;;27.39;50.79;100254.19;146632;590;44917;-73
2022/08/15 06:21:38;;;;;;;;;6.00;6.00;;;;;26.40;50.45;100092.50;146628;656;45912;-75
2022/08/15 06:25:10;;;;;;;;;5.00;5.00;;;;;26.23;49.36;100093.78;146632;624;45010;-73
2022/08/15 06:28:39;;;;;;;;;5.67;3.67;;;;;26.99;50.85;100255.13;146628;623;45912;-73
2022/08/15 06:31:41;;;;;;;;;7.00;6.33;;;;;26.85;49.58;100263.41;146632;589;45010;-74
2022/08/15 06:35:13;;;;;;;;;5.33;4.33;;;;;26.80;51.23;100275.97;146631;564;44913;-74
2022/08/15 06:39:09;;;;;;;;;8.67;7.67;;;;;25.84;51.52;100110.59;146634;572;44021;-74
2022/08/15 06:42:26;;;;;;;;;10.00;9.33;;;;;26.45;52.85;100207.59;146633;607;44912;-73
2022/08/15 06:45:42;;;;;;;;;8.75;8.00;;;;;27.21;52.34;100275.94;146631;588;44021;-74
2022/08/15 06:48:45;;;;;;;;;5.33;4.67;;;;;27.52;49.70;100284.03;146631;671;44912;-73
2022/08/15 06:51:49;;;;;;;;;6.67;6.67;;;;;27.79;48.49;100285.16;146630;594;45011;-74
2022/08/15 06:54:57;;;;;;;;;7.67;6.00;;;;;27.92;50.39;100261.72;146627;569;45913;-75
2022/08/15 06:58:20;;;;;;;;;7.33;7.33;;;;;28.25;49.69;100289.19;146634;597;45010;-74
2022/08/15 07:02:18;;;;;;;;;5.00;4.33;;;;;28.50;49.17;100297.38;146632;564;44911;-74
2022/08/15 07:05:49;;;;;;;;;5.00;5.00;;;;;27.84;48.72;100148.19;146634;581;45010;-73
2022/08/15 07:09:06;;;;;;;;;5.33;5.33;;;;;28.87;47.29;100297.13;146631;619;45012;-74
2022/08/15 07:12:42;;;;;;;;;6.00;6.00;;;;;29.05;47.08;100303.75;146629;563;45916;-74
2022/08/15 07:16:19;;;;;;;;;6.25;6.25;;;;;29.20;46.95;100295.25;146633;648;44911;-74
2022/08/15 07:19:18;;;;;;;;;7.00;5.00;;;;;29.34;46.19;100292.09;146633;646;44020;-73
2022/08/15 07:22:11;;;;;;;;;3.75;3.75;;;;;29.42;46.15;100289.19;146624;572;47010;-73
2022/08/15 07:25:11;;;;;;;;;7.00;5.67;;;;;29.50;44.25;100291.59;146631;585;45010;-73
2022/08/15 07:28:10;;;;;;;;;7.67;7.00;;;;;29.45;44.17;100299.78;146631;573;44912;-73
2022/08/15 07:31:28;;;;;;;;;5.33;5.33;;;;;29.24;44.62;100294.22;146634;565;44037;-75
2022/08/15 07:34:34;;;;;;;;;6.00;6.00;;;;;28.20;45.09;100153.38;146631;666;45912;-73
2022/08/15 07:37:37;;;;;;;;;5.33;5.33;;;;;28.94;44.81;100305.81;146633;608;45014;-73
2022/08/15 07:40:52;;;;;;;;;4.33;4.33;;;;;28.93;46.02;100301.41;146629;565;45912;-74
2022/08/15 07:43:49;;;;;;;;;7.00;6.33;;;;;28.93;44.06;100302.28;146634;566;45010;-74
2022/08/15 07:46:49;;;;;;;;;6.00;5.00;;;;;28.96;45.31;100298.66;146631;611;45913;-73
2022/08/15 07:50:00;;;;;;;;;5.33;4.33;;;;;29.00;44.09;100308.31;146632;680;44917;-74
2022/08/15 07:53:13;;;;;;;;;6.25;6.25;;;;;29.05;46.71;100308.22;146628;563;44914;-73
2022/08/15 07:56:29;;;;;;;;;6.00;5.00;;;;;29.20;46.92;100313.94;146632;610;45010;-76
2022/08/15 07:59:26;;;;;;;;;6.50;6.50;;;;;29.42;45.19;100310.56;146629;570;45012;-74
2022/08/15 08:03:09;;;;;;;;;6.67;5.67;;;;;28.79;44.59;100179.13;146630;653;44020;-74
2022/08/15 08:06:32;;;;;;;;;6.75;5.75;;;;;28.89;46.14;100151.19;146632;646;45912;-74
2022/08/15 08:10:15;;;;;;;;;6.00;6.00;;;;;30.14;43.11;100321.47;146634;590;44020;-73
2022/08/15 08:14:16;;;;;;;;;6.33;5.67;;;;;29.54;44.67;100175.72;146630;589;45013;-74
2022/08/15 08:18:04;;;;;;;;;;;;;;;;;;;;;
2022/08/15 08:21:15;;;;;;;;;5.00;5.00;;;;;30.89;40.60;100331.22;146628;581;46911;-76
2022/08/15 08:24:19;;;;;;;;;6.00;5.00;;;;;30.98;40.32;100336.22;146635;586;44916;-74
2022/08/15 08:27:38;;;;;;;;;6.50;6.50;;;;;31.08;42.67;100334.91;146631;602;45012;-75
2022/08/15 08:30:56;;;;;;;;;4.33;4.33;;;;;31.32;39.52;100327.69;146629;640;44914;-76
2022/08/15 08:34:48;;;;;;;;;8.00;8.00;;;;;30.62;43.48;100181.44;146628;572;45910;-75
2022/08/15 08:38:23;;;;;;;;;4.00;4.00;;;;;31.68;41.71;100319.06;146632;584;44917;-75
2022/08/15 08:41:42;;;;;;;;;5.50;5.50;;;;;31.86;42.45;100320.97;146630;683;45910;-74
2022/08/15 08:45:02;;;;;;;;;6.50;6.00;;;;;32.01;42.08;100308.75;146634;597;45010;-75
2022/08/15 08:48:38;;;;;;;;;5.25;5.25;;;;;31.36;40.67;100163.25;146630;619;45912;-76
2022/08/15 08:52:22;;;;;;;;;7.00;7.00;;;;;32.25;40.92;100301.41;146632;642;45014;-74
2022/08/15 08:56:03;;;;;;;;;5.25;4.75;;;;;32.32;40.33;100302.88;146631;599;44910;-74
2022/08/15 08:59:23;;;;;;;;;5.00;4.50;;;;;32.41;39.93;100298.91;146632;599;45010;-75
2022/08/15 09:03:14;;;;;;;;;6.25;6.00;;;;;31.51;39.26;100145.63;146628;579;44910;-74
2022/08/15 09:06:21;;;;;;;;;6.50;6.50;;;;;32.25;37.41;100293.38;146632;655;45010;-75
2022/08/15 09:09:49;;;;;;;;;7.50;7.50;;;;;31.23;39.58;100140.56;146603;600;45910;-75
2022/08/15 09:16:36;;;;;;;;;5.33;5.33;;;;;31.29;39.16;100143.84;146604;608;45912;-75
2022/08/15 09:19:54;;;;;;;;;9.75;8.75;;;;;32.25;39.53;100282.62;146606;578;46010;-76
2022/08/15 09:22:59;;;;;;;;;4.75;4.00;;;;;32.47;38.66;100289.72;146601;587;46014;-75
2022/08/15 09:26:29;;;;;;;;;7.50;7.00;;;;;31.94;39.92;100143.72;146606;630;46010;-76
2022/08/15 09:29:58;;;;;;;;;8.00;7.25;;;;;32.96;35.38;100282.91;146601;671;46012;-75
2022/08/15 09:33:29;;;;;;;;;13.25;10.00;;;;;32.15;39.08;100153.44;146605;573;46010;-75
2022/08/15 09:37:05;;;;;;;;;;;;;;;;;;;;;
2022/08/15 09:40:55;;;;;;;;;18.25;16.75;;;;;32.34;37.81;100141.84;146600;576;48010;-74
2022/08/15 09:44:23;;;;;;;;;6.75;6.75;;;;;33.26;38.23;100279.66;146602;662;45915;-76
2022/08/15 09:48:03;;;;;;;;;10.00;10.00;;;;;32.60;36.64;100137.91;146604;662;45022;-76
2022/08/15 09:51:43;;;;;;;;;25.50;24.50;;;;;32.59;38.54;100144.22;146601;599;45862;-77
2022/08/15 09:55:09;;;;;;;;;11.25;6.75;;;;;33.47;37.15;100280.41;146607;650;45020;-71
2022/08/15 09:58:28;;;;;;;;;4.75;4.75;;;;;33.59;37.29;100285.19;146603;573;45913;-71
2022/08/15 10:01:33;;;;;;;;;12.50;11.25;;;;;33.68;35.78;100286.56;146606;580;46010;-71
2022/08/15 10:05:42;;;;;;;;;13.00;11.50;;;;;32.87;35.75;100141.03;146600;615;47013;-71
2022/08/15 10:09:17;;;;;;;;;25.75;24.00;;;;;33.78;36.21;100290.50;146606;595;46008;-70
2022/08/15 10:12:28;;;;;;;;;11.50;10.50;;;;;33.84;35.15;100290.16;146599;606;46013;-72
2022/08/15 10:15:43;;;;;;;;;5.25;5.25;;;;;33.78;36.14;100285.09;146606;574;45022;-72
2022/08/15 10:19:13;;;;;;;;;12.00;12.00;;;;;32.98;36.11;100140.50;146602;602;45914;-71
2022/08/15 10:22:48;;;;;;;;;32.25;28.25;;;;;33.06;33.55;100147.22;146608;631;45020;-70
2022/08/15 10:25:45;;;;;;;;;21.75;19.00;;;;;33.80;33.05;100273.34;146601;588;46015;-70
2022/08/15 10:28:50;;;;;;;;;29.50;27.75;;;;;33.82;33.99;100275.91;146602;591;45020;-71
2022/08/15 10:32:05;;;;;;;;;19.00;19.00;;;;;33.15;35.44;100132.47;146602;649;46014;-71
2022/08/15 10:35:15;;;;;;;;;9.75;8.75;;;;;34.11;35.88;100271.72;146607;654;46014;-71
2022/08/15 10:38:16;;;;;;;;;5.33;4.33;;;;;34.25;33.61;100269.16;146605;640;45914;-71
2022/08/15 10:41:38;;;;;;;;;12.75;12.25;;;;;34.36;36.56;100273.94;146606;634;46009;-71
2022/08/15 10:45:14;;;;;;;;;4.25;4.25;;;;;33.57;34.68;100118.59;146604;562;45914;-71
2022/08/15 10:48:49;;;;;;;;;15.00;15.00;;;;;34.49;34.05;100263.38;146606;638;45021;-71
2022/08/15 10:52:26;;;;;;;;;9.00;8.75;;;;;33.82;33.83;100141.47;146604;656;45912;-71
2022/08/15 10:55:34;;;;;;;;;7.50;7.50;;;;;34.38;34.20;100273.88;146606;597;46010;-71
2022/08/15 10:58:49;;;;;;;;;8.00;7.50;;;;;33.46;33.75;100133.50;146604;583;45911;-72
2022/08/15 11:01:48;;;;;;;;;18.00;16.25;;;;;34.25;32.92;100268.28;146603;554;46011;-72
2022/08/15 11:04:48;;;;;;;;;7.00;7.00;;;;;34.34;34.58;100266.94;146603;616;45913;-72
2022/08/15 11:07:47;;;;;;;;;7.00;6.00;;;;;34.38;34.39;100269.34;146606;740;45020;-73
2022/08/15 11:10:44;;;;;;;;;6.25;6.00;;;;;34.29;35.69;100280.63;146603;581;45913;-73
2022/08/15 11:13:42;;;;;;;;;5.25;4.75;;;;;34.02;35.00;100277.63;146605;670;46010;-76
2022/08/15 11:16:51;;;;;;;;;4.50;4.50;;;;;33.69;37.85;100274.84;146603;564;45916;-73
2022/08/15 11:19:52;;;;;;;;;7.00;6.75;;;;;33.26;37.79;100276.97;146604;594;46010;-75
2022/08/15 11:23:14;;;;;;;;;4.75;4.75;;;;;31.93;37.26;100134.81;146600;646;46014;-75
2022/08/15 11:26:13;;;;;;;;;6.00;5.75;;;;;32.43;37.92;100264.78;146607;620;45023;-73
2022/08/15 11:29:33;;;;;;;;;5.00;5.00;;;;;32.39;37.16;100277.50;146604;569;45914;-74
2022/08/15 11:32:39;;;;;;;;;4.00;4.00;;;;;32.39;36.53;100276.62;146607;605;45038;-73
2022/08/15 11:35:39;;;;;;;;;5.00;5.00;;;;;32.36;37.85;100279.44;146602;722;45914;-75
2022/08/15 11:38:34;;;;;;;;;4.67;4.67;;;;;32.23;37.34;100276.47;146609;576;45021;-72
2022/08/15 11:41:42;;;;;;;;;6.00;6.00;;;;;32.08;36.91;100267.28;146606;579;45942;-73
2022/08/15 11:44:56;;;;;;;;;5.25;4.75;;;;;31.92;36.54;100263.56;146607;565;45020;-74
2022/08/15 11:48:17;;;;;;;;;6.00;5.00;;;;;30.90;35.68;100134.84;146604;597;45915;-73
2022/08/15 11:51:57;;;;;;;;;5.00;5.00;;;;;30.63;35.53;100135.03;146605;569;46010;-77
2022/08/15 11:54:50;;;;;;;;;5.33;5.33;;;;;31.24;36.29;100270.87;146601;609;46014;-77
2022/08/15 11:57:55;;;;;;;;;5.00;3.67;;;;;31.20;36.78;100267.47;146608;638;45020;-75
2022/08/15 12:01:24;;;;;;;;;6.00;6.00;;;;;31.27;39.13;100260.91;146604;576;45914;-72
2022/08/15 12:04:42;;;;;;;;;4.33;4.33;;;;;30.68;39.18;100118.78;146609;606;45020;-73
2022/08/15 12:08:13;;;;;;;;;4.00;4.00;;;;;30.88;37.15;100112.66;146607;569;46014;-72
2022/08/15 12:11:21;;;;;;;;;6.00;5.00;;;;;31.83;36.21;100261.25;146619;665;45023;-75
2022/08/15 12:14:39;;;;;;;;;4.33;4.33;;;;;31.90;37.77;100254.69;146613;653;45915;-73
2022/08/15 12:17:51;;;;;;;;;5.00;5.00;;;;;32.05;37.42;100267.44;146617;597;45021;-72
2022/08/15 12:21:20;;;;;;;;;5.00;5.00;;;;;32.12;34.38;100263.56;146610;563;45914;-74
2022/08/15 12:24:46;;;;;;;;;6.00;5.00;;;;;32.07;34.80;100260.19;146612;674;46011;-73
2022/08/15 12:27:41;;;;;;;;;4.00;4.00;;;;;32.11;37.12;100269.84;146608;600;45915;-76
2022/08/15 12:30:46;;;;;;;;;;;;;;;;;;;;;
2022/08/15 12:33:43;;;;;;;;;4.25;4.25;;;;;32.14;37.87;100274.19;146612;713;45913;-79
2022/08/15 12:36:35;;;;;;;;;4.25;4.25;;;;;32.10;36.98;100273.47;146616;591;46010;-80
2022/08/15 12:39:41;;;;;;;;;5.00;5.00;;;;;32.10;37.68;100261.88;146611;703;45914;-78
2022/08/15 12:42:56;;;;;;;;;3.75;3.75;;;;;32.17;38.40;100271.37;146613;655;45020;-78
2022/08/15 12:45:49;;;;;;;;;4.50;4.00;;;;;32.11;38.80;100275.19;146609;592;45912;-80
2022/08/15 12:48:43;;;;;;;;;5.50;5.50;;;;;31.93;38.71;100265.28;146614;660;45021;-79
2022/08/15 12:51:36;;;;;;;;;5.75;5.75;;;;;31.72;39.15;100256.38;146613;600;45914;-77
2022/08/15 12:54:29;;;;;;;;;7.00;7.00;;;;;31.53;39.42;100250.94;146612;570;46010;-81
2022/08/15 12:57:23;;;;;;;;;3.33;3.33;;;;;31.23;39.25;100253.06;146610;608;45913;-80
2022/08/15 13:00:27;;;;;;;;;3.00;3.00;;;;;31.09;39.66;100247.41;146615;569;46011;-78
2022/08/15 13:03:45;;;;;;;;;5.75;5.00;;;;;31.08;39.74;100243.00;146610;566;45914;-80
2022/08/15 13:07:07;;;;;;;;;5.50;4.25;;;;;30.21;40.77;100094.84;146616;564;45020;-76
2022/08/15 13:10:01;;;;;;;;;5.50;5.50;;;;;31.16;40.12;100246.25;146602;582;46012;-79
2022/08/15 13:12:59;;;;;;;;;5.75;5.75;;;;;31.23;39.89;100242.34;146607;563;45020;-81
2022/08/15 13:15:52;;;;;;;;;5.25;4.25;;;;;31.33;39.60;100242.84;146603;597;45914;-77
2022/08/15 13:18:48;;;;;;;;;5.33;5.33;;;;;31.34;40.49;100236.56;146607;616;45020;-82
2022/08/15 13:25:02;;;;;;;;;4.00;4.00;;;;;31.20;38.27;100235.31;146603;575;46010;-81
2022/08/15 13:28:05;;;;;;;;;5.67;5.67;;;;;31.19;37.99;100230.91;146603;644;45914;-83
2022/08/15 13:30:58;;;;;;;;;4.67;4.67;;;;;31.20;38.27;100227.28;146607;584;46010;-79
2022/08/15 13:33:56;;;;;;;;;5.00;4.00;;;;;31.24;38.28;100228.03;146604;641;46014;-79
2022/08/15 13:36:55;;;;;;;;;4.00;4.00;;;;;31.33;37.65;100233.00;146607;590;46010;-79
2022/08/15 13:39:56;;;;;;;;;4.00;4.00;;;;;31.45;37.99;100229.81;146601;571;46012;-78
2022/08/15 13:43:00;;;;;;;;;;;;;;;;;;;;;
2022/08/15 13:46:04;;;;;;;;;3.00;3.00;;;;;31.58;36.63;100226.63;146604;593;45913;-78
2022/08/15 13:48:59;;;;;;;;;4.33;3.00;;;;;31.63;36.50;100228.16;146607;630;46010;-78
2022/08/15 13:51:58;;;;;;;;;3.00;3.00;;;;;31.63;36.63;100230.84;146602;605;46013;-75
2022/08/15 13:54:51;;;;;;;;;3.50;3.25;;;;;31.43;37.08;100212.94;146606;566;45020;-77
2022/08/15 13:57:51;;;;;;;;;4.00;4.00;;;;;31.45;37.52;100204.84;146603;574;45914;-75
2022/08/15 14:00:47;;;;;;;;;6.25;5.25;;;;;31.57;37.13;100220.37;146605;572;46011;-74
2022/08/15 14:03:40;;;;;;;;;5.00;5.00;;;;;31.62;36.27;100229.09;146604;569;45914;-76
2022/08/15 14:06:42;;;;;;;;;4.00;4.00;;;;;31.56;37.40;100228.47;146606;605;45021;-75
2022/08/15 14:09:49;;;;;;;;;5.00;4.00;;;;;31.52;38.70;100227.75;146600;569;46012;-75
2022/08/15 14:12:46;;;;;;;;;6.00;4.67;;;;;31.55;38.37;100234.78;146609;575;45020;-75
2022/08/15 14:15:44;;;;;;;;;6.00;6.00;;;;;31.63;38.30;100230.84;146601;656;46014;-75
2022/08/15 14:18:42;;;;;;;;;5.33;4.33;;;;;31.70;38.22;100232.31;146608;582;45020;-75
2022/08/15 14:21:46;;;;;;;;;5.75;5.75;;;;;31.71;37.82;100238.53;146602;673;46012;-77
2022/08/15 14:24:47;;;;;;;;;3.67;3.67;;;;;31.69;37.48;100241.28;146606;598;45045;-75
2022/08/15 14:27:50;;;;;;;;;4.00;4.00;;;;;31.72;38.13;100234.94;146599;585;46014;-76
2022/08/15 14:30:53;;;;;;;;;4.00;4.00;;;;;31.75;39.03;100243.69;146608;647;45021;-76
2022/08/15 14:33:59;;;;;;;;;5.00;5.00;;;;;30.89;37.02;100098.31;146603;607;46012;-76
2022/08/15 14:37:16;;;;;;;;;5.67;5.67;;;;;30.87;38.24;100093.00;146605;583;47010;-77
2022/08/15 14:40:16;;;;;;;;;6.00;5.00;;;;;31.70;37.17;100234.13;146603;614;45912;-77
2022/08/15 14:43:14;;;;;;;;;5.67;4.33;;;;;31.63;37.67;100244.25;146608;569;45021;-75
2022/08/15 14:46:21;;;;;;;;;;;;;;;;;;;;;
2022/08/15 14:49:21;;;;;;;;;3.67;3.67;;;;;31.22;38.88;100240.63;146607;612;46014;-80
2022/08/15 14:52:16;;;;;;;;;5.00;4.75;;;;;31.00;39.01;100241.50;146602;586;46017;-82
2022/08/15 14:55:19;;;;;;;;;5.00;5.00;;;;;30.90;39.36;100233.91;146605;614;45020;-78
2022/08/15 14:58:20;;;;;;;;;6.75;6.75;;;;;30.89;40.02;100241.06;146603;631;45915;-77
2022/08/15 15:01:30;;;;;;;;;4.50;4.50;;;;;30.98;40.55;100237.16;146607;564;45037;-81
2022/08/15 15:04:36;;;;;;;;;;;;;;;;;;;;;
2022/08/15 15:07:43;;;;;;;;;7.33;6.33;;;;;31.21;38.94;100237.06;146608;588;45021;-77
2022/08/15 15:10:51;;;;;;;;;6.00;6.00;;;;;31.30;39.17;100239.34;146609;571;45914;-79